sensor_id;sensor_type;location;lat;lon;timestamp;P1;durP1;ratioP1;P2;durP2;ratioP2
3696;SDS011;60662;48.810;8.872;2022-12-07T19:39:03;9.90;;;2.50;;
3696;SDS011;60662;48.810;8.872;2022-12-07T19:40:12;10.00;;;2.60;;
3696;SDS011;60662;48.810;8.872;2022-12-07T19:41:15;13.07;;;3.00;;
3696;SDS011;60662;48.810;8.872;2022-12-07T19:42:34;9.55;;;3.70;;
3696;SDS011;60662;48.810;8.872;2022-12-07T19:43:36;7.88;;;2.90;;
3696;SDS011;60662;48.810;8.872;2022-12-07T19:44:37;5.25;;;2.55;;
3696;SDS011;60662;48.810;8.872;2022-12-07T19:45:39;6.55;;;2.47;;
3696;SDS011;60662;48.810;8.872;2022-12-07T19:46:40;13.27;;;2.80;;
3696;SDS011;60662;48.810;8.872;2022-12-07T19:47:47;8.23;;;3.20;;
3696;SDS011;60662;48.810;8.872;2022-12-07T19:48:48;9.13;;;3.08;;
3696;SDS011;60662;48.810;8.872;2022-12-07T19:49:50;6.20;;;2.65;;
3696;SDS011;60662;48.810;8.872;2022-12-07T19:50:51;9.38;;;2.30;;
3696;SDS011;60662;48.810;8.872;2022-12-07T19:52:04;11.70;;;2.50;;
3696;SDS011;60662;48.810;8.872;2022-12-07T19:53:07;8.95;;;2.42;;
3696;SDS011;60662;48.810;8.872;2022-12-07T19:54:09;8.00;;;2.80;;
3696;SDS011;60662;48.810;8.872;2022-12-07T19:55:12;16.20;;;2.60;;
3696;SDS011;60662;48.810;8.872;2022-12-07T19:56:17;11.88;;;3.50;;
3696;SDS011;60662;48.810;8.872;2022-12-07T19:57:20;6.38;;;2.20;;
3696;SDS011;60662;48.810;8.872;2022-12-07T19:58:22;3.65;;;2.00;;
3696;SDS011;60662;48.810;8.872;2022-12-07T19:59:24;8.30;;;2.42;;
3696;SDS011;60662;48.810;8.872;2022-12-07T20:00:28;6.32;;;1.85;;
3696;SDS011;60662;48.810;8.872;2022-12-07T20:01:30;7.53;;;2.28;;
3696;SDS011;60662;48.810;8.872;2022-12-07T20:02:31;6.93;;;2.15;;
3696;SDS011;60662;48.810;8.872;2022-12-07T20:03:33;10.07;;;3.00;;
3696;SDS011;60662;48.810;8.872;2022-12-07T20:04:34;10.52;;;3.50;;
3696;SDS011;60662;48.810;8.872;2022-12-07T20:05:36;10.38;;;2.60;;
3696;SDS011;60662;48.810;8.872;2022-12-07T20:06:38;12.70;;;3.20;;
3696;SDS011;60662;48.810;8.872;2022-12-07T20:07:40;5.30;;;2.65;;
3696;SDS011;60662;48.810;8.872;2022-12-07T20:08:42;5.35;;;2.40;;
3696;SDS011;60662;48.810;8.872;2022-12-07T20:09:44;9.18;;;2.33;;
3696;SDS011;60662;48.810;8.872;2022-12-07T20:10:46;11.52;;;2.60;;
3696;SDS011;60662;48.810;8.872;2022-12-07T20:11:48;7.20;;;2.67;;
3696;SDS011;60662;48.810;8.872;2022-12-07T20:13:08;5.40;;;2.58;;
3696;SDS011;60662;48.810;8.872;2022-12-07T20:14:28;9.23;;;2.25;;
3696;SDS011;60662;48.810;8.872;2022-12-07T20:15:31;9.63;;;2.55;;
3696;SDS011;60662;48.810;8.872;2022-12-07T20:16:33;6.90;;;2.22;;
3696;SDS011;60662;48.810;8.872;2022-12-07T20:17:38;5.10;;;2.20;;
3696;SDS011;60662;48.810;8.872;2022-12-07T20:18:39;6.45;;;2.63;;
3696;SDS011;60662;48.810;8.872;2022-12-07T20:19:41;5.82;;;2.35;;
3696;SDS011;60662;48.810;8.872;2022-12-07T20:20:51;7.10;;;2.03;;
3696;SDS011;60662;48.810;8.872;2022-12-07T20:21:56;5.22;;;1.50;;
3696;SDS011;60662;48.810;8.872;2022-12-07T20:23:01;9.45;;;2.28;;
3696;SDS011;60662;48.810;8.872;2022-12-07T20:24:03;13.00;;;3.08;;
3696;SDS011;60662;48.810;8.872;2022-12-07T20:25:06;12.25;;;2.25;;
3696;SDS011;60662;48.810;8.872;2022-12-07T20:26:10;5.25;;;2.28;;
3696;SDS011;60662;48.810;8.872;2022-12-07T20:27:13;5.38;;;2.03;;
3696;SDS011;60662;48.810;8.872;2022-12-07T20:28:19;8.43;;;2.05;;
3696;SDS011;60662;48.810;8.872;2022-12-07T20:29:22;10.35;;;2.42;;
3696;SDS011;60662;48.810;8.872;2022-12-07T20:30:25;9.27;;;2.75;;
3696;SDS011;60662;48.810;8.872;2022-12-07T20:31:26;4.00;;;2.20;;
3696;SDS011;60662;48.810;8.872;2022-12-07T20:32:28;6.70;;;2.95;;
3696;SDS011;60662;48.810;8.872;2022-12-07T20:33:30;12.35;;;2.20;;
3696;SDS011;60662;48.810;8.872;2022-12-07T20:34:32;9.05;;;2.55;;
3696;SDS011;60662;48.810;8.872;2022-12-07T20:35:33;6.50;;;2.28;;
3696;SDS011;60662;48.810;8.872;2022-12-07T20:36:35;5.32;;;1.50;;
3696;SDS011;60662;48.810;8.872;2022-12-07T20:37:37;7.13;;;2.67;;
3696;SDS011;60662;48.810;8.872;2022-12-07T20:38:38;6.95;;;2.25;;
3696;SDS011;60662;48.810;8.872;2022-12-07T20:39:40;5.32;;;2.30;;
3696;SDS011;60662;48.810;8.872;2022-12-07T20:40:46;8.70;;;2.40;;
3696;SDS011;60662;48.810;8.872;2022-12-07T20:41:49;5.80;;;1.90;;
3696;SDS011;60662;48.810;8.872;2022-12-07T20:43:10;3.80;;;1.67;;
3696;SDS011;60662;48.810;8.872;2022-12-07T20:44:12;4.90;;;2.03;;
3696;SDS011;60662;48.810;8.872;2022-12-07T20:45:14;5.05;;;2.25;;
3696;SDS011;60662;48.810;8.872;2022-12-07T20:46:15;10.18;;;3.20;;
3696;SDS011;60662;48.810;8.872;2022-12-07T20:47:17;9.55;;;2.85;;
3696;SDS011;60662;48.810;8.872;2022-12-07T20:48:19;5.75;;;2.25;;
3696;SDS011;60662;48.810;8.872;2022-12-07T20:49:21;3.25;;;2.15;;
3696;SDS011;60662;48.810;8.872;2022-12-07T20:50:22;8.52;;;1.88;;
3696;SDS011;60662;48.810;8.872;2022-12-07T20:51:24;6.85;;;1.95;;
3696;SDS011;60662;48.810;8.872;2022-12-07T20:52:25;5.97;;;2.40;;
3696;SDS011;60662;48.810;8.872;2022-12-07T20:53:27;11.73;;;2.22;;
3696;SDS011;60662;48.810;8.872;2022-12-07T20:54:28;5.32;;;1.98;;
3696;SDS011;60662;48.810;8.872;2022-12-07T20:55:30;6.55;;;2.22;;
3696;SDS011;60662;48.810;8.872;2022-12-07T20:56:32;6.18;;;1.77;;
3696;SDS011;60662;48.810;8.872;2022-12-07T20:57:34;5.45;;;2.17;;
3696;SDS011;60662;48.810;8.872;2022-12-07T20:58:35;2.83;;;1.50;;
3696;SDS011;60662;48.810;8.872;2022-12-07T20:59:37;10.95;;;2.40;;
3696;SDS011;60662;48.810;8.872;2022-12-07T21:00:42;7.55;;;2.25;;
3696;SDS011;60662;48.810;8.872;2022-12-07T21:01:43;3.50;;;2.45;;
3696;SDS011;60662;48.810;8.872;2022-12-07T21:02:45;4.70;;;1.77;;
3696;SDS011;60662;48.810;8.872;2022-12-07T21:03:47;4.13;;;2.22;;
3696;SDS011;60662;48.810;8.872;2022-12-07T21:04:49;5.00;;;1.98;;
3696;SDS011;60662;48.810;8.872;2022-12-07T21:05:51;5.82;;;2.17;;
3696;SDS011;60662;48.810;8.872;2022-12-07T21:06:52;5.65;;;2.40;;
3696;SDS011;60662;48.810;8.872;2022-12-07T21:07:54;5.93;;;2.20;;
3696;SDS011;60662;48.810;8.872;2022-12-07T21:08:56;4.65;;;2.05;;
3696;SDS011;60662;48.810;8.872;2022-12-07T21:09:59;4.03;;;2.08;;
3696;SDS011;60662;48.810;8.872;2022-12-07T21:11:05;4.43;;;2.10;;
3696;SDS011;60662;48.810;8.872;2022-12-07T21:12:08;3.45;;;2.17;;
3696;SDS011;60662;48.810;8.872;2022-12-07T21:13:11;4.60;;;2.17;;
3696;SDS011;60662;48.810;8.872;2022-12-07T21:14:13;5.32;;;2.60;;
3696;SDS011;60662;48.810;8.872;2022-12-07T21:15:14;16.73;;;2.22;;
3696;SDS011;60662;48.810;8.872;2022-12-07T21:16:20;5.47;;;2.08;;
3696;SDS011;60662;48.810;8.872;2022-12-07T21:17:24;7.40;;;1.95;;
3696;SDS011;60662;48.810;8.872;2022-12-07T21:18:26;3.55;;;1.90;;
3696;SDS011;60662;48.810;8.872;2022-12-07T21:19:29;6.05;;;2.03;;
3696;SDS011;60662;48.810;8.872;2022-12-07T21:20:31;3.70;;;1.63;;
3696;SDS011;60662;48.810;8.872;2022-12-07T21:21:33;7.25;;;2.72;;
3696;SDS011;60662;48.810;8.872;2022-12-07T21:22:35;6.75;;;2.50;;
3696;SDS011;60662;48.810;8.872;2022-12-07T21:23:37;5.90;;;2.10;;
3696;SDS011;60662;48.810;8.872;2022-12-07T21:24:38;6.85;;;2.08;;
3696;SDS011;60662;48.810;8.872;2022-12-07T21:25:41;4.47;;;2.47;;
3696;SDS011;60662;48.810;8.872;2022-12-07T21:26:46;5.50;;;1.70;;
3696;SDS011;60662;48.810;8.872;2022-12-07T21:27:48;5.97;;;2.30;;
3696;SDS011;60662;48.810;8.872;2022-12-07T21:28:49;4.10;;;2.00;;
3696;SDS011;60662;48.810;8.872;2022-12-07T21:29:51;5.70;;;2.65;;
3696;SDS011;60662;48.810;8.872;2022-12-07T21:30:55;3.65;;;1.77;;
3696;SDS011;60662;48.810;8.872;2022-12-07T21:32:16;3.90;;;1.88;;
3696;SDS011;60662;48.810;8.872;2022-12-07T21:33:18;4.25;;;2.35;;
3696;SDS011;60662;48.810;8.872;2022-12-07T21:34:19;3.47;;;1.90;;
3696;SDS011;60662;48.810;8.872;2022-12-07T21:35:21;5.55;;;1.95;;
3696;SDS011;60662;48.810;8.872;2022-12-07T21:36:24;5.25;;;1.42;;
3696;SDS011;60662;48.810;8.872;2022-12-07T21:37:26;3.83;;;2.25;;
3696;SDS011;60662;48.810;8.872;2022-12-07T21:38:28;4.85;;;1.77;;
3696;SDS011;60662;48.810;8.872;2022-12-07T21:39:30;6.68;;;2.40;;
3696;SDS011;60662;48.810;8.872;2022-12-07T21:40:36;3.55;;;1.90;;
3696;SDS011;60662;48.810;8.872;2022-12-07T21:41:37;8.10;;;2.10;;
3696;SDS011;60662;48.810;8.872;2022-12-07T21:42:38;2.80;;;1.73;;
3696;SDS011;60662;48.810;8.872;2022-12-07T21:43:40;4.28;;;1.95;;
3696;SDS011;60662;48.810;8.872;2022-12-07T21:44:42;4.53;;;1.80;;
3696;SDS011;60662;48.810;8.872;2022-12-07T21:45:50;3.80;;;1.90;;
3696;SDS011;60662;48.810;8.872;2022-12-07T21:46:53;3.38;;;1.73;;
3696;SDS011;60662;48.810;8.872;2022-12-07T21:47:54;3.13;;;1.73;;
3696;SDS011;60662;48.810;8.872;2022-12-07T21:48:56;4.03;;;1.77;;
3696;SDS011;60662;48.810;8.872;2022-12-07T21:50:00;2.60;;;1.63;;
3696;SDS011;60662;48.810;8.872;2022-12-07T21:51:05;4.00;;;1.40;;
3696;SDS011;60662;48.810;8.872;2022-12-07T21:52:08;3.20;;;1.48;;
3696;SDS011;60662;48.810;8.872;2022-12-07T21:53:09;2.58;;;1.27;;
3696;SDS011;60662;48.810;8.872;2022-12-07T21:54:11;3.80;;;1.85;;
3696;SDS011;60662;48.810;8.872;2022-12-07T21:55:13;7.38;;;1.90;;
3696;SDS011;60662;48.810;8.872;2022-12-07T21:56:22;3.28;;;1.85;;
3696;SDS011;60662;48.810;8.872;2022-12-07T21:57:25;5.93;;;1.70;;
3696;SDS011;60662;48.810;8.872;2022-12-07T21:58:26;2.97;;;1.60;;
3696;SDS011;60662;48.810;8.872;2022-12-07T21:59:28;4.80;;;2.22;;
3696;SDS011;60662;48.810;8.872;2022-12-07T22:00:29;2.60;;;1.60;;
3696;SDS011;60662;48.810;8.872;2022-12-07T22:01:31;5.78;;;2.00;;
3696;SDS011;60662;48.810;8.872;2022-12-07T22:02:37;3.85;;;1.67;;
3696;SDS011;60662;48.810;8.872;2022-12-07T22:03:42;4.35;;;1.80;;
3696;SDS011;60662;48.810;8.872;2022-12-07T22:04:44;6.20;;;1.85;;
3696;SDS011;60662;48.810;8.872;2022-12-07T22:05:46;3.50;;;1.75;;
3696;SDS011;60662;48.810;8.872;2022-12-07T22:06:48;3.65;;;2.00;;
3696;SDS011;60662;48.810;8.872;2022-12-07T22:07:50;4.28;;;1.83;;
3696;SDS011;60662;48.810;8.872;2022-12-07T22:08:56;3.08;;;1.70;;
3696;SDS011;60662;48.810;8.872;2022-12-07T22:09:57;6.22;;;1.92;;
3696;SDS011;60662;48.810;8.872;2022-12-07T22:10:59;5.72;;;1.80;;
3696;SDS011;60662;48.810;8.872;2022-12-07T22:12:01;3.50;;;1.80;;
3696;SDS011;60662;48.810;8.872;2022-12-07T22:13:03;4.75;;;1.92;;
3696;SDS011;60662;48.810;8.872;2022-12-07T22:14:04;3.70;;;1.80;;
3696;SDS011;60662;48.810;8.872;2022-12-07T22:15:25;3.65;;;2.15;;
3696;SDS011;60662;48.810;8.872;2022-12-07T22:16:28;2.58;;;1.75;;
3696;SDS011;60662;48.810;8.872;2022-12-07T22:17:30;3.03;;;1.73;;
3696;SDS011;60662;48.810;8.872;2022-12-07T22:18:32;4.65;;;2.13;;
3696;SDS011;60662;48.810;8.872;2022-12-07T22:19:33;2.28;;;1.60;;
3696;SDS011;60662;48.810;8.872;2022-12-07T22:20:35;3.20;;;2.05;;
3696;SDS011;60662;48.810;8.872;2022-12-07T22:21:38;3.50;;;1.88;;
3696;SDS011;60662;48.810;8.872;2022-12-07T22:22:39;3.88;;;1.90;;
3696;SDS011;60662;48.810;8.872;2022-12-07T22:23:44;6.70;;;1.42;;
3696;SDS011;60662;48.810;8.872;2022-12-07T22:24:48;5.35;;;1.95;;
3696;SDS011;60662;48.810;8.872;2022-12-07T22:25:49;6.90;;;1.70;;
3696;SDS011;60662;48.810;8.872;2022-12-07T22:26:51;8.77;;;1.70;;
3696;SDS011;60662;48.810;8.872;2022-12-07T22:27:52;6.10;;;1.50;;
3696;SDS011;60662;48.810;8.872;2022-12-07T22:28:54;3.65;;;1.63;;
3696;SDS011;60662;48.810;8.872;2022-12-07T22:29:55;2.60;;;1.90;;
3696;SDS011;60662;48.810;8.872;2022-12-07T22:31:01;4.53;;;1.92;;
3696;SDS011;60662;48.810;8.872;2022-12-07T22:32:04;5.13;;;1.80;;
3696;SDS011;60662;48.810;8.872;2022-12-07T22:33:26;3.47;;;1.60;;
3696;SDS011;60662;48.810;8.872;2022-12-07T22:34:27;4.75;;;1.90;;
3696;SDS011;60662;48.810;8.872;2022-12-07T22:35:29;4.00;;;1.60;;
3696;SDS011;60662;48.810;8.872;2022-12-07T22:36:31;5.47;;;1.55;;
3696;SDS011;60662;48.810;8.872;2022-12-07T22:37:32;2.60;;;1.60;;
3696;SDS011;60662;48.810;8.872;2022-12-07T22:38:35;2.83;;;1.65;;
3696;SDS011;60662;48.810;8.872;2022-12-07T22:39:38;2.78;;;1.65;;
3696;SDS011;60662;48.810;8.872;2022-12-07T22:40:40;3.20;;;1.67;;
3696;SDS011;60662;48.810;8.872;2022-12-07T22:41:41;2.45;;;1.50;;
3696;SDS011;60662;48.810;8.872;2022-12-07T22:42:42;3.83;;;1.83;;
3696;SDS011;60662;48.810;8.872;2022-12-07T22:43:44;3.00;;;1.80;;
3696;SDS011;60662;48.810;8.872;2022-12-07T22:44:46;5.70;;;1.95;;
3696;SDS011;60662;48.810;8.872;2022-12-07T22:45:54;2.60;;;1.30;;
3696;SDS011;60662;48.810;8.872;2022-12-07T22:46:56;3.50;;;2.20;;
3696;SDS011;60662;48.810;8.872;2022-12-07T22:48:01;2.97;;;1.60;;
3696;SDS011;60662;48.810;8.872;2022-12-07T22:49:03;3.75;;;2.00;;
3696;SDS011;60662;48.810;8.872;2022-12-07T22:50:05;4.85;;;2.33;;
3696;SDS011;60662;48.810;8.872;2022-12-07T22:51:15;2.35;;;1.50;;
3696;SDS011;60662;48.810;8.872;2022-12-07T22:52:25;4.10;;;2.25;;
3696;SDS011;60662;48.810;8.872;2022-12-07T22:53:26;4.90;;;1.95;;
3696;SDS011;60662;48.810;8.872;2022-12-07T22:54:29;2.50;;;1.63;;
3696;SDS011;60662;48.810;8.872;2022-12-07T22:55:30;4.63;;;2.10;;
3696;SDS011;60662;48.810;8.872;2022-12-07T22:56:32;3.95;;;1.65;;
3696;SDS011;60662;48.810;8.872;2022-12-07T22:57:36;3.50;;;1.60;;
3696;SDS011;60662;48.810;8.872;2022-12-07T22:58:41;4.82;;;2.13;;
3696;SDS011;60662;48.810;8.872;2022-12-07T22:59:43;4.13;;;1.90;;
3696;SDS011;60662;48.810;8.872;2022-12-07T23:00:45;7.25;;;2.25;;
3696;SDS011;60662;48.810;8.872;2022-12-07T23:01:46;5.32;;;2.25;;
3696;SDS011;60662;48.810;8.872;2022-12-07T23:02:48;12.75;;;1.67;;
3696;SDS011;60662;48.810;8.872;2022-12-07T23:03:53;3.15;;;1.65;;
3696;SDS011;60662;48.810;8.872;2022-12-07T23:04:55;4.75;;;1.80;;
3696;SDS011;60662;48.810;8.872;2022-12-07T23:05:56;3.35;;;1.70;;
3696;SDS011;60662;48.810;8.872;2022-12-07T23:06:57;8.00;;;1.83;;
3696;SDS011;60662;48.810;8.872;2022-12-07T23:07:59;5.40;;;1.70;;
3696;SDS011;60662;48.810;8.872;2022-12-07T23:09:02;2.45;;;1.42;;
3696;SDS011;60662;48.810;8.872;2022-12-07T23:10:05;2.72;;;1.65;;
3696;SDS011;60662;48.810;8.872;2022-12-07T23:11:08;4.70;;;1.45;;
3696;SDS011;60662;48.810;8.872;2022-12-07T23:12:11;4.85;;;1.80;;
3696;SDS011;60662;48.810;8.872;2022-12-07T23:13:41;4.00;;;1.88;;
3696;SDS011;60662;48.810;8.872;2022-12-07T23:14:43;2.75;;;1.60;;
3696;SDS011;60662;48.810;8.872;2022-12-07T23:15:45;3.60;;;1.80;;
3696;SDS011;60662;48.810;8.872;2022-12-07T23:16:46;2.95;;;1.50;;
3696;SDS011;60662;48.810;8.872;2022-12-07T23:17:48;3.45;;;1.65;;
3696;SDS011;60662;48.810;8.872;2022-12-07T23:18:50;5.10;;;1.90;;
3696;SDS011;60662;48.810;8.872;2022-12-07T23:19:51;1.70;;;1.23;;
3696;SDS011;60662;48.810;8.872;2022-12-07T23:20:56;11.23;;;1.70;;
3696;SDS011;60662;48.810;8.872;2022-12-07T23:21:58;2.47;;;1.70;;
3696;SDS011;60662;48.810;8.872;2022-12-07T23:22:59;3.55;;;1.50;;
3696;SDS011;60662;48.810;8.872;2022-12-07T23:24:05;4.85;;;1.75;;
3696;SDS011;60662;48.810;8.872;2022-12-07T23:25:07;6.55;;;1.92;;
3696;SDS011;60662;48.810;8.872;2022-12-07T23:26:09;3.40;;;2.10;;
3696;SDS011;60662;48.810;8.872;2022-12-07T23:27:11;3.22;;;1.75;;
3696;SDS011;60662;48.810;8.872;2022-12-07T23:28:12;3.90;;;1.50;;
3696;SDS011;60662;48.810;8.872;2022-12-07T23:29:16;3.38;;;1.65;;
3696;SDS011;60662;48.810;8.872;2022-12-07T23:30:18;4.65;;;1.33;;
3696;SDS011;60662;48.810;8.872;2022-12-07T23:31:20;2.40;;;1.67;;
3696;SDS011;60662;48.810;8.872;2022-12-07T23:32:22;2.15;;;1.55;;
3696;SDS011;60662;48.810;8.872;2022-12-07T23:33:23;4.10;;;1.77;;
3696;SDS011;60662;48.810;8.872;2022-12-07T23:34:25;2.90;;;1.48;;
3696;SDS011;60662;48.810;8.872;2022-12-07T23:35:26;2.38;;;1.60;;
3696;SDS011;60662;48.810;8.872;2022-12-07T23:36:28;2.47;;;1.40;;
3696;SDS011;60662;48.810;8.872;2022-12-07T23:37:30;3.15;;;1.30;;
3696;SDS011;60662;48.810;8.872;2022-12-07T23:38:31;6.43;;;1.83;;
3696;SDS011;60662;48.810;8.872;2022-12-07T23:39:32;1.88;;;1.20;;
3696;SDS011;60662;48.810;8.872;2022-12-07T23:40:35;2.55;;;1.50;;
3696;SDS011;60662;48.810;8.872;2022-12-07T23:41:37;3.17;;;1.38;;
3696;SDS011;60662;48.810;8.872;2022-12-07T23:42:38;4.07;;;1.90;;
3696;SDS011;60662;48.810;8.872;2022-12-07T23:43:40;2.55;;;1.52;;
3696;SDS011;60662;48.810;8.872;2022-12-07T23:44:42;3.55;;;1.45;;
3696;SDS011;60662;48.810;8.872;2022-12-07T23:45:47;3.95;;;1.63;;
3696;SDS011;60662;48.810;8.872;2022-12-07T23:46:49;2.75;;;1.35;;
3696;SDS011;60662;48.810;8.872;2022-12-07T23:47:50;2.55;;;1.45;;
3696;SDS011;60662;48.810;8.872;2022-12-07T23:48:52;2.33;;;1.70;;
3696;SDS011;60662;48.810;8.872;2022-12-07T23:49:55;3.67;;;1.38;;
3696;SDS011;60662;48.810;8.872;2022-12-07T23:50:57;2.53;;;1.45;;
3696;SDS011;60662;48.810;8.872;2022-12-07T23:51:59;2.40;;;1.30;;
3696;SDS011;60662;48.810;8.872;2022-12-07T23:53:00;3.47;;;1.55;;
3696;SDS011;60662;48.810;8.872;2022-12-07T23:54:02;2.53;;;1.40;;
3696;SDS011;60662;48.810;8.872;2022-12-07T23:55:04;3.97;;;2.00;;
3696;SDS011;60662;48.810;8.872;2022-12-07T23:56:09;2.40;;;1.35;;
3696;SDS011;60662;48.810;8.872;2022-12-07T23:57:12;2.95;;;1.60;;
3696;SDS011;60662;48.810;8.872;2022-12-07T23:58:13;2.08;;;1.30;;
3696;SDS011;60662;48.810;8.872;2022-12-07T23:59:15;2.28;;;1.60;;
